createdAt,value
2022-09-25T00:00:36.787Z,3.80
2022-09-25T00:05:43.079Z,5.10
2022-09-25T00:10:48.790Z,3.10
2022-09-25T00:15:54.145Z,3.42
2022-09-25T00:21:03.998Z,3.25
2022-09-25T00:26:08.693Z,2.72
2022-09-25T00:31:15.183Z,4.00
2022-09-25T00:36:20.276Z,3.03
2022-09-25T00:41:26.823Z,2.22
2022-09-25T00:46:32.938Z,2.50
2022-09-25T00:51:42.715Z,2.17
2022-09-25T00:56:48.995Z,1.92
2022-09-25T01:01:52.440Z,2.15
2022-09-25T01:06:57.108Z,4.38
2022-09-25T01:12:00.051Z,3.05
2022-09-25T01:17:08.313Z,2.03
2022-09-25T01:22:22.390Z,2.00
2022-09-25T01:27:46.908Z,2.42
2022-09-25T01:32:58.853Z,2.05
2022-09-25T01:38:15.233Z,1.75
2022-09-25T01:43:21.171Z,2.47
2022-09-25T01:48:28.544Z,3.00
2022-09-25T01:53:43.498Z,1.63
2022-09-25T01:58:52.893Z,1.80
2022-09-25T02:04:00.741Z,1.52
2022-09-25T02:09:08.115Z,1.85
2022-09-25T02:14:16.644Z,2.17
2022-09-25T02:19:38.834Z,2.03
2022-09-25T02:24:48.956Z,1.52
2022-09-25T02:29:52.259Z,1.60
2022-09-25T02:34:57.639Z,2.25
2022-09-25T02:40:03.750Z,1.70
2022-09-25T02:45:14.451Z,1.77
2022-09-25T02:50:25.055Z,5.47
2022-09-25T02:55:35.371Z,1.48
2022-09-25T03:00:39.989Z,1.52
2022-09-25T03:05:45.156Z,1.48
2022-09-25T03:10:48.356Z,1.73
2022-09-25T03:15:53.184Z,2.33
2022-09-25T03:20:57.523Z,1.67
2022-09-25T03:26:00.683Z,1.40
2022-09-25T03:31:06.122Z,1.63
2022-09-25T03:36:13.552Z,1.30
2022-09-25T03:41:20.170Z,1.40
2022-09-25T03:46:25.407Z,1.88
2022-09-25T03:51:31.276Z,1.55
2022-09-25T03:56:34.514Z,1.08
2022-09-25T04:01:37.954Z,1.58
2022-09-25T04:06:42.298Z,1.75
2022-09-25T04:11:45.280Z,1.70
2022-09-25T04:16:48.276Z,1.50
2022-09-25T04:21:52.629Z,1.65
2022-09-25T04:26:55.583Z,2.03
2022-09-25T04:32:16.022Z,2.03
2022-09-25T04:37:26.192Z,1.70
2022-09-25T04:42:29.223Z,2.08
2022-09-25T04:47:32.192Z,1.65
2022-09-25T04:52:36.522Z,2.25
2022-09-25T04:57:57.879Z,1.85
2022-09-25T05:03:04.096Z,1.63
2022-09-25T05:08:08.684Z,2.55
2022-09-25T05:13:12.352Z,2.33
2022-09-25T05:18:18.553Z,1.70
2022-09-25T05:23:23.838Z,2.28
2022-09-25T05:28:26.844Z,3.30
2022-09-25T05:33:29.831Z,1.83
2022-09-25T05:38:35.947Z,1.60
2022-09-25T05:43:41.294Z,2.17
2022-09-25T05:48:44.317Z,1.70
2022-09-25T05:53:49.051Z,3.63
2022-09-25T05:58:52.865Z,1.88
2022-09-25T06:03:55.941Z,1.75
2022-09-25T06:09:00.255Z,1.45
2022-09-25T06:14:03.929Z,1.60
2022-09-25T06:19:06.983Z,2.63
2022-09-25T06:24:11.804Z,1.63
2022-09-25T06:29:14.863Z,2.90
2022-09-25T06:34:17.809Z,2.53
2022-09-25T06:39:22.140Z,1.50
2022-09-25T06:44:26.138Z,2.10
2022-09-25T06:49:29.092Z,2.20
2022-09-25T06:54:33.468Z,3.65
2022-09-25T06:59:36.390Z,3.65
2022-09-25T07:04:39.315Z,6.43
2022-09-25T07:09:43.646Z,14.95
2022-09-25T07:14:47.630Z,5.78
2022-09-25T07:19:50.592Z,22.17
2022-09-25T07:24:54.904Z,26.58
2022-09-25T07:29:57.928Z,16.23
2022-09-25T07:35:02.513Z,17.58
2022-09-25T07:40:14.580Z,11.48
2022-09-25T07:45:17.657Z,12.93
2022-09-25T07:50:20.608Z,9.13
2022-09-25T07:55:25.168Z,14.05
2022-09-25T08:00:28.210Z,8.25
2022-09-25T08:05:31.337Z,6.97
2022-09-25T08:10:35.644Z,8.48
2022-09-25T08:15:38.825Z,5.13
2022-09-25T08:20:41.819Z,5.88
2022-09-25T08:25:48.595Z,6.45
2022-09-25T08:30:51.775Z,5.47
2022-09-25T08:35:58.683Z,7.28
2022-09-25T08:41:05.841Z,5.03
2022-09-25T08:46:51.262Z,4.65
2022-09-25T08:51:59.791Z,5.82
2022-09-25T08:57:13.893Z,4.90
2022-09-25T09:02:20.136Z,9.68
2022-09-25T09:07:28.125Z,16.55
2022-09-25T09:12:39.354Z,18.05
2022-09-25T09:17:43.718Z,21.08
2022-09-25T09:22:53.179Z,14.98
2022-09-25T09:28:35.064Z,12.75
2022-09-25T09:33:46.336Z,9.10
2022-09-25T09:38:58.451Z,9.27
2022-09-25T09:44:23.925Z,10.38
2022-09-25T09:49:33.142Z,7.75
2022-09-25T09:54:42.563Z,9.98
2022-09-25T09:59:51.307Z,6.93
2022-09-25T10:04:56.522Z,13.73
2022-09-25T10:10:00.661Z,10.55
2022-09-25T10:15:08.660Z,10.82
2022-09-25T10:20:18.627Z,9.95
2022-09-25T10:25:37.036Z,10.55
2022-09-25T10:30:47.355Z,5.70
2022-09-25T10:35:53.319Z,8.52
2022-09-25T10:41:03.938Z,5.05
2022-09-25T10:46:14.686Z,5.88
2022-09-25T10:51:19.940Z,5.43
2022-09-25T10:56:27.090Z,5.72
2022-09-25T11:01:35.911Z,5.85
2022-09-25T11:06:45.044Z,8.60
2022-09-25T11:11:49.417Z,10.65
2022-09-25T11:16:58.005Z,8.68
2022-09-25T11:22:09.094Z,6.05
2022-09-25T11:27:17.039Z,7.53
2022-09-25T11:32:29.227Z,3.97
2022-09-25T11:37:38.255Z,4.20
2022-09-25T11:42:47.360Z,7.60
2022-09-25T11:47:57.943Z,4.20
2022-09-25T11:53:12.726Z,6.97
2022-09-25T11:58:40.260Z,4.05
2022-09-25T12:04:00.416Z,2.85
2022-09-25T12:09:19.590Z,3.17
2022-09-25T12:14:28.582Z,6.32
2022-09-25T12:19:39.546Z,4.20
2022-09-25T12:24:55.661Z,3.60
2022-09-25T12:30:17.573Z,4.28
2022-09-25T12:35:34.886Z,4.15
2022-09-25T12:40:41.423Z,4.15
2022-09-25T12:45:49.402Z,6.38
2022-09-25T12:51:04.313Z,3.65
2022-09-25T12:56:14.344Z,4.50
2022-09-25T13:01:25.307Z,4.95
2022-09-25T13:06:40.616Z,5.68
2022-09-25T13:11:50.946Z,3.42
2022-09-25T13:16:54.084Z,3.72
2022-09-25T13:22:04.330Z,5.05
2022-09-25T13:27:12.557Z,3.60
2022-09-25T13:32:18.952Z,4.20
2022-09-25T13:37:28.057Z,3.75
2022-09-25T13:42:36.089Z,3.13
2022-09-25T13:48:10.741Z,2.28
2022-09-25T13:53:33.691Z,3.92
2022-09-25T13:59:19.160Z,3.40
2022-09-25T14:04:32.973Z,4.82
2022-09-25T14:09:42.926Z,3.13
2022-09-25T14:14:52.662Z,4.63
2022-09-25T14:19:57.229Z,2.95
2022-09-25T14:25:02.147Z,3.92
2022-09-25T14:30:08.183Z,4.25
2022-09-25T14:35:27.158Z,2.67
2022-09-25T14:40:36.429Z,4.45
2022-09-25T14:46:03.162Z,3.20
2022-09-25T14:51:10.587Z,3.10
2022-09-25T14:56:15.827Z,3.20
2022-09-25T15:01:27.470Z,2.78
2022-09-25T15:06:32.814Z,3.20
2022-09-25T15:11:44.451Z,2.83
2022-09-25T15:17:05.516Z,3.00
2022-09-25T15:22:17.991Z,3.30
2022-09-25T15:27:23.561Z,2.70
2022-09-25T15:32:29.137Z,2.65
2022-09-25T15:37:32.113Z,2.65
2022-09-25T15:42:36.476Z,3.25
2022-09-25T15:47:52.502Z,4.18
2022-09-25T15:52:58.153Z,2.25
2022-09-25T15:58:14.735Z,2.05
2022-09-25T16:03:40.174Z,1.83
2022-09-25T16:08:43.641Z,2.30
2022-09-25T16:13:51.752Z,2.25
2022-09-25T16:18:56.022Z,1.98
2022-09-25T16:24:01.875Z,2.67
2022-09-25T16:29:15.928Z,2.50
2022-09-25T16:34:25.838Z,3.40
2022-09-25T16:39:31.733Z,1.95
2022-09-25T16:44:46.991Z,2.13
2022-09-25T16:49:50.603Z,1.50
2022-09-25T16:54:57.043Z,2.25
2022-09-25T17:00:01.732Z,3.47
2022-09-25T17:05:08.119Z,3.45
2022-09-25T17:10:15.181Z,1.90
2022-09-25T17:15:23.804Z,1.90
2022-09-25T17:20:28.161Z,2.25
2022-09-25T17:25:44.889Z,1.92
2022-09-25T17:30:49.282Z,1.70
2022-09-25T17:35:54.552Z,3.95
2022-09-25T17:41:03.185Z,2.45
2022-09-25T17:46:11.365Z,4.85
2022-09-25T17:51:17.843Z,4.47
2022-09-25T17:56:21.201Z,4.55
2022-09-25T18:01:27.848Z,2.92
2022-09-25T18:06:31.553Z,3.72
2022-09-25T18:11:34.504Z,4.10
2022-09-25T18:16:39.035Z,5.50
2022-09-25T18:21:59.654Z,4.53
2022-09-25T18:27:02.927Z,3.10
2022-09-25T18:32:08.088Z,3.00
2022-09-25T18:37:11.338Z,2.17
2022-09-25T18:42:14.396Z,4.15
2022-09-25T18:47:18.757Z,6.72
2022-09-25T18:52:21.730Z,3.40
2022-09-25T18:57:24.751Z,3.63
2022-09-25T19:02:30.929Z,2.47
2022-09-25T19:07:34.052Z,3.60
2022-09-25T19:12:37.056Z,3.78
2022-09-25T19:17:41.395Z,3.75
2022-09-25T19:22:44.504Z,3.70
2022-09-25T19:27:47.906Z,3.70
2022-09-25T19:32:52.308Z,3.70
2022-09-25T19:37:55.263Z,3.92
2022-09-25T19:42:58.499Z,7.15
2022-09-25T19:48:03.159Z,5.72
2022-09-25T19:53:06.134Z,6.20
2022-09-25T19:58:09.678Z,7.45
2022-09-25T20:03:14.431Z,3.95
2022-09-25T20:08:17.506Z,2.80
2022-09-25T20:13:20.542Z,3.58
2022-09-25T20:18:24.877Z,4.70
2022-09-25T20:23:27.847Z,3.78
2022-09-25T20:28:30.816Z,2.67
2022-09-25T20:33:35.552Z,2.92
2022-09-25T20:38:38.612Z,5.05
2022-09-25T20:43:44.112Z,5.97
2022-09-25T20:48:51.418Z,3.75
2022-09-25T20:53:55.959Z,6.40
2022-09-25T20:58:59.965Z,4.05
2022-09-25T21:04:07.105Z,9.45
2022-09-25T21:09:16.703Z,5.72
2022-09-25T21:14:21.576Z,2.95
2022-09-25T21:19:25.995Z,6.72
2022-09-25T21:24:29.031Z,4.88
2022-09-25T21:29:33.801Z,4.55
2022-09-25T21:34:38.129Z,4.15
2022-09-25T21:39:41.082Z,3.28
2022-09-25T21:44:44.075Z,2.85
2022-09-25T21:49:48.923Z,3.28
2022-09-25T21:54:51.895Z,4.22
2022-09-25T21:59:54.864Z,3.33
2022-09-25T22:04:59.207Z,3.75
2022-09-25T22:10:02.254Z,2.63
2022-09-25T22:15:05.798Z,28.95
2022-09-25T22:20:11.473Z,4.85
2022-09-25T22:25:14.454Z,4.80
2022-09-25T22:30:17.583Z,2.92
2022-09-25T22:35:21.917Z,3.05
2022-09-25T22:40:25.227Z,2.80
2022-09-25T22:45:29.192Z,2.95
2022-09-25T22:50:33.515Z,2.65
2022-09-25T22:55:36.521Z,3.03
2022-09-25T23:00:43.083Z,4.35
2022-09-25T23:05:47.468Z,3.38
2022-09-25T23:11:06.727Z,3.03
2022-09-25T23:16:10.473Z,3.28
2022-09-25T23:21:15.161Z,2.38
2022-09-25T23:26:18.140Z,3.22
2022-09-25T23:31:21.945Z,2.38
2022-09-25T23:36:26.982Z,2.97
2022-09-25T23:41:31.938Z,2.53
2022-09-25T23:46:37.917Z,2.22
2022-09-25T23:51:42.455Z,2.20
2022-09-25T23:56:45.448Z,2.45
